Time;durP1;ratioP1;P1;durP2;ratioP2;P2;SDS_P1;SDS_P2;PMS_P1;PMS_P2;Temp;Humidity;BMP_temperature;BMP_pressure;BME280_temperature;BME280_humidity;BME280_pressure;Samples;Min_cycle;Max_cycle;Signal;HPM_P1;HPM_P2
2022/06/09 08:04:02;;;;;;;;;;;;;;;27.52;100.00;97579.75;1470933;26;19968;-63
2022/06/09 08:06:28;;;;;;;;;;;;;;;27.63;100.00;97619.91;5050297;28;19932;-57
2022/06/09 08:08:55;;;;;;;;;;;;;;;27.83;100.00;97632.13;5050320;28;19932;-58
2022/06/09 08:11:21;;;;;;;;;;;;;;;28.29;100.00;97662.34;5050191;28;19931;-59
2022/06/09 08:13:47;;;;;;;;;;;;;;;28.83;100.00;97624.25;5050320;28;20327;-59
2022/06/09 08:16:13;;;;;;;;;;;;;;;29.39;100.00;97649.13;5049876;28;20043;-59
2022/06/09 08:18:39;;;;;;;;;;;;;;;29.34;100.00;97714.84;5050281;28;20011;-59
2022/06/09 08:21:06;;;;;;;;;;;;;;;29.30;100.00;97751.06;5050012;28;19931;-59
2022/06/09 08:23:32;;;;;;;;;;;;;;;30.15;100.00;97731.16;5050611;28;19931;-59
2022/06/09 08:25:59;;;;;;;;;;;;;;;31.00;100.00;97784.53;5050015;28;19924;-59
2022/06/09 08:28:25;;;;;;;;;;;;;;;32.02;100.00;97812.66;5050031;28;20022;-59
2022/06/09 08:30:52;;;;;;;;;;;;;;;32.48;100.00;97836.00;5049611;28;20320;-59
2022/06/09 08:33:19;;;;;;;;;;;;;;;31.88;100.00;97897.66;5049367;28;19925;-59
2022/06/09 08:35:45;;;;;;;;;;;;;;;32.09;100.00;97925.41;5049908;28;19947;-59
2022/06/09 08:38:11;;;;;;;;;;;;;;;33.01;100.00;98018.34;5049916;28;19925;-59
2022/06/09 08:40:43;;;;;;;;;;;;;;;33.15;100.00;98077.94;5049906;28;19982;-60
2022/06/09 08:43:14;;;;;;;;;;;;;;;33.83;100.00;98051.75;5049536;28;20015;-59
2022/06/09 08:45:42;;;;;;;;;;;;;;;33.87;100.00;98069.97;5049686;28;19931;-59
2022/06/09 08:48:13;;;;;;;;;;;;;;;33.27;100.00;98116.94;5049817;28;20357;-59
2022/06/09 08:50:41;;;;;;;;;;;;;;;34.37;100.00;98098.56;5049649;28;19971;-59
2022/06/09 08:53:10;;;;;;;;;;;;;;;33.94;100.00;98111.19;5049328;28;19924;-59
2022/06/09 08:55:38;;;;;;;;;;;;;;;33.64;100.00;98049.81;5049333;28;20134;-59
2022/06/09 08:58:11;;;;;;;;;;;;;;;33.35;100.00;98031.81;5049397;28;19928;-59
2022/06/09 09:00:38;;;;;;;;;;;;;;;33.30;100.00;98046.16;5049462;28;20382;-60
2022/06/09 09:03:09;;;;;;;;;;;;;;;33.30;100.00;98055.44;5049501;28;19924;-59
2022/06/09 09:05:38;;;;;;;;;;;;;;;33.57;100.00;98041.22;5049402;28;19924;-59
2022/06/09 09:08:06;;;;;;;;;;;;;;;33.80;100.00;98067.06;5049735;28;19978;-59
2022/06/09 09:10:39;;;;;;;;;;;;;;;33.11;100.00;98101.00;5049217;28;19928;-59
2022/06/09 09:13:13;;;;;;;;;;;;;;;33.27;100.00;98080.03;5049513;28;19924;-59
2022/06/09 09:15:43;;;;;;;;;;;;;;;32.57;100.00;98093.72;5049260;28;19924;-59
2022/06/09 09:18:16;;;;;;;;;;;;;;;32.39;100.00;98041.38;5049367;28;19925;-59
2022/06/09 09:20:49;;;;;;;;;;;;;;;32.32;100.00;98074.00;5049537;28;19924;-59
2022/06/09 09:23:17;;;;;;;;;;;;;;;32.21;100.00;98023.13;5049167;28;20107;-59
2022/06/09 09:25:44;;;;;;;;;;;;;;;32.52;100.00;98006.63;5049318;28;19989;-59
2022/06/09 09:28:16;;;;;;;;;;;;;;;32.45;100.00;98019.38;5049173;28;19924;-59
2022/06/09 09:30:44;;;;;;;;;;;;;;;31.48;100.00;97989.47;5049369;28;20397;-59
2022/06/09 09:33:14;;;;;;;;;;;;;;;31.40;100.00;98035.38;5048829;28;20015;-59
2022/06/09 09:35:41;;;;;;;;;;;;;;;31.79;100.00;98019.91;5049201;28;20070;-59
2022/06/09 09:38:09;;;;;;;;;;;;;;;31.26;100.00;97974.28;5048884;28;20327;-59
2022/06/09 09:40:36;;;;;;;;;;;;;;;30.52;100.00;98006.78;5049176;28;19972;-59
2022/06/09 09:43:08;;;;;;;;;;;;;;;31.02;100.00;97941.16;5048967;28;20383;-59
2022/06/09 09:45:36;;;;;;;;;;;;;;;30.85;100.00;97978.16;5049400;28;20500;-58
2022/06/09 09:48:03;;;;;;;;;;;;;;;31.27;100.00;98012.63;5052439;28;20346;-59
2022/06/09 09:50:32;;;;;;;;;;;;;;;31.92;100.00;98041.13;5052433;28;20022;-58
2022/06/09 09:53:01;;;;;;;;;;;;;;;32.18;100.00;98032.69;5052208;28;20436;-58
2022/06/09 09:55:29;;;;;;;;;;;;;;;32.44;100.00;97985.88;5052136;28;20469;-59
2022/06/09 09:58:15;;;;;;;;;;;;;;;32.42;100.00;98019.66;5052636;28;19975;-59
2022/06/09 10:00:42;;;;;;;;;;;;;;;32.21;100.00;98000.44;5052123;28;19955;-59
2022/06/09 10:08:44;;;;;;;;;;;;;;;31.23;100.00;98020.66;5052043;28;19947;-59
2022/06/09 10:14:02;;;;;;;;;;;;;;;30.12;100.00;97935.69;5052014;28;19970;-58
2022/06/09 10:16:31;;;;;;;;;;;;;;;30.78;100.00;98011.94;5051847;28;19925;-58
2022/06/09 10:19:00;;;;;;;;;;;;;;;30.18;100.00;98030.47;5051805;28;19928;-59
2022/06/09 10:21:26;;;;;;;;;;;;;;;30.78;100.00;98021.19;5051785;28;19925;-58
2022/06/09 10:23:55;;;;;;;;;;;;;;;30.56;100.00;97976.16;5051831;28;20066;-58
2022/06/09 10:26:30;;;;;;;;;;;;;;;30.90;100.00;97934.88;5051553;28;19968;-58
2022/06/09 10:29:00;;;;;;;;;;;;;;;31.47;100.00;97970.94;5051987;28;19936;-58
2022/06/09 10:31:32;;;;;;;;;;;;;;;30.94;100.00;98013.81;5051321;28;19988;-59
2022/06/09 10:34:01;;;;;;;;;;;;;;;31.81;100.00;98036.34;5051959;28;19928;-58
2022/06/09 10:36:28;;;;;;;;;;;;;;;32.28;100.00;98011.13;5051408;28;20459;-58
2022/06/09 10:38:57;;;;;;;;;;;;;;;32.54;100.00;98018.94;5051670;28;20441;-59
2022/06/09 10:41:31;;;;;;;;;;;;;;;32.22;100.00;98095.53;5051459;28;19931;-58
2022/06/09 10:43:59;;;;;;;;;;;;;;;31.38;100.00;98088.94;5051499;28;19931;-58
2022/06/09 10:46:31;;;;;;;;;;;;;;;31.33;100.00;98041.66;5051351;28;19936;-58
2022/06/09 10:57:23;;;;;;;;;;;;;;;31.09;100.00;98052.97;5051471;28;19931;-58
2022/06/09 10:59:51;;;;;;;;;;;;;;;31.26;100.00;98059.22;5051483;28;19924;-58
2022/06/09 11:02:19;;;;;;;;;;;;;;;30.51;100.00;97935.31;5051313;28;19947;-58
2022/06/09 11:04:46;;;;;;;;;;;;;;;30.91;100.00;97997.91;5051357;28;19924;-58
2022/06/09 11:07:32;;;;;;;;;;;;;;;30.94;100.00;98002.50;5051248;28;19924;-58
2022/06/09 11:10:02;;;;;;;;;;;;;;;30.87;100.00;98031.38;5051207;28;19931;-58
2022/06/09 11:12:34;;;;;;;;;;;;;;;30.64;100.00;98073.25;5051080;28;20028;-58
2022/06/09 11:15:10;;;;;;;;;;;;;;;31.39;100.00;98027.44;5051135;28;20042;-58
2022/06/09 11:17:43;;;;;;;;;;;;;;;31.01;100.00;98103.00;5051311;28;19935;-58
2022/06/09 11:20:17;;;;;;;;;;;;;;;31.00;100.00;98129.78;5050865;28;19924;-59
2022/06/09 11:22:46;;;;;;;;;;;;;;;31.32;100.00;98095.94;5051315;28;20266;-59
2022/06/09 11:25:30;;;;;;;;;;;;;;;31.38;100.00;98085.34;5050987;28;19925;-57
2022/06/09 11:28:02;;;;;;;;;;;;;;;32.15;100.00;98084.06;5050932;28;19929;-56
2022/06/09 11:30:32;;;;;;;;;;;;;;;31.39;100.00;98106.72;5050765;28;19928;-57
2022/06/09 11:33:04;;;;;;;;;;;;;;;31.83;100.00;98101.78;5050882;28;20421;-57
2022/06/09 11:35:45;;;;;;;;;;;;;;;31.91;100.00;98164.28;5050824;28;20014;-57
2022/06/09 11:38:23;;;;;;;;;;;;;;;31.45;100.00;98106.66;5050598;28;19924;-57
2022/06/09 11:40:58;;;;;;;;;;;;;;;31.48;100.00;98102.75;5050878;28;19924;-57
2022/06/09 11:43:35;;;;;;;;;;;;;;;30.64;100.00;98115.69;5050623;28;19925;-57
2022/06/09 11:46:03;;;;;;;;;;;;;;;31.05;100.00;98126.88;5050728;28;19970;-58
2022/06/09 11:48:31;;;;;;;;;;;;;;;31.37;100.00;98100.81;5050511;28;20067;-58
2022/06/09 11:50:58;;;;;;;;;;;;;;;31.73;100.00;98090.06;5050799;28;20023;-58
2022/06/09 11:53:26;;;;;;;;;;;;;;;31.56;100.00;98083.84;5050246;28;20019;-58
2022/06/09 11:56:12;;;;;;;;;;;;;;;31.06;100.00;97960.69;5050467;28;19924;-57
2022/06/09 11:58:43;;;;;;;;;;;;;;;31.63;100.00;98052.09;5050481;28;20026;-58
2022/06/09 12:01:12;;;;;;;;;;;;;;;31.11;100.00;98127.59;5050288;28;19925;-58
2022/06/09 12:03:46;;;;;;;;;;;;;;;31.40;100.00;98113.91;5050380;28;20015;-58
2022/06/09 12:06:20;;;;;;;;;;;;;;;31.71;100.00;98101.16;5050347;28;19928;-58
2022/06/09 12:09:00;;;;;;;;;;;;;;;31.61;100.00;98077.34;5049542;28;20062;-57
2022/06/09 12:11:46;;;;;;;;;;;;;;;29.83;100.00;98075.69;5050210;28;19955;-58
2022/06/09 12:14:17;;;;;;;;;;;;;;;29.82;100.00;98043.81;5050019;28;19925;-58
2022/06/09 12:16:55;;;;;;;;;;;;;;;30.20;100.00;98069.53;5050440;28;20024;-58
2022/06/09 12:19:22;;;;;;;;;;;;;;;30.74;100.00;98087.81;5050297;28;19925;-58
2022/06/09 12:21:51;;;;;;;;;;;;;;;30.64;100.00;98064.78;5050531;28;20342;-58
2022/06/09 12:24:30;;;;;;;;;;;;;;;29.78;100.00;98040.50;5049976;28;19931;-58
2022/06/09 12:27:04;;;;;;;;;;;;;;;29.97;100.00;98032.16;5050224;28;20291;-58
2022/06/09 12:29:41;;;;;;;;;;;;;;;29.93;100.00;98055.06;5049877;28;19979;-58
2022/06/09 12:32:31;;;;;;;;;;;;;;;29.88;100.00;98072.81;5049877;28;20359;-58
2022/06/09 12:34:58;;;;;;;;;;;;;;;29.94;100.00;98045.28;5050228;28;19940;-57
2022/06/09 12:37:28;;;;;;;;;;;;;;;29.80;100.00;98018.16;5050013;28;19982;-57
2022/06/09 12:39:56;;;;;;;;;;;;;;;29.84;100.00;98068.72;5049717;28;20399;-58
2022/06/09 12:42:27;;;;;;;;;;;;;;;30.19;100.00;98040.50;5049888;28;19982;-58
2022/06/09 12:44:59;;;;;;;;;;;;;;;30.38;100.00;97992.50;5050026;28;20409;-58
2022/06/09 12:47:25;;;;;;;;;;;;;;;29.87;100.00;98037.38;5049762;28;19986;-57
2022/06/09 12:49:53;;;;;;;;;;;;;;;30.43;100.00;98028.47;5049660;28;20053;-58
2022/06/09 12:52:20;;;;;;;;;;;;;;;29.11;100.00;98009.81;5049777;28;19924;-58
2022/06/09 12:54:48;;;;;;;;;;;;;;;29.22;100.00;98016.16;5049338;28;20415;-57
2022/06/09 12:57:19;;;;;;;;;;;;;;;29.73;100.00;98008.19;5049937;28;20015;-57
2022/06/09 12:59:45;;;;;;;;;;;;;;;30.04;100.00;98031.59;5049535;28;20379;-57
2022/06/09 13:02:21;;;;;;;;;;;;;;;30.18;100.00;98032.50;5049774;28;19931;-58
2022/06/09 13:04:50;;;;;;;;;;;;;;;30.00;100.00;98012.09;5049598;28;20031;-57
2022/06/09 13:07:20;;;;;;;;;;;;;;;29.48;100.00;97981.13;5049494;28;19928;-57
2022/06/09 13:09:58;;;;;;;;;;;;;;;29.82;100.00;98007.09;5049407;28;20024;-57
2022/06/09 13:15:16;;;;;;;;;;;;;;;29.83;100.00;97993.75;5049816;28;19932;-57
2022/06/09 13:17:43;;;;;;;;;;;;;;;30.15;100.00;98014.53;5049307;28;19924;-57
2022/06/09 13:20:13;;;;;;;;;;;;;;;30.08;100.00;98020.78;5050664;28;19925;-57
2022/06/09 13:22:39;;;;;;;;;;;;;;;29.37;100.00;98034.84;5052719;28;19951;-57
2022/06/09 13:25:11;;;;;;;;;;;;;;;29.37;100.00;98004.53;5052984;28;19931;-57
2022/06/09 13:27:41;;;;;;;;;;;;;;;29.34;100.00;98011.22;5052562;28;20387;-57
2022/06/09 13:30:08;;;;;;;;;;;;;;;29.72;100.00;98057.53;5052680;28;19924;-57
2022/06/09 13:32:39;;;;;;;;;;;;;;;29.72;100.00;98051.88;5052644;28;19928;-57
2022/06/09 13:35:23;;;;;;;;;;;;;;;29.76;100.00;98026.94;5052539;28;19951;-57
2022/06/09 13:38:00;;;;;;;;;;;;;;;29.96;100.00;97988.25;5039070;28;19931;-57
2022/06/09 13:40:27;;;;;;;;;;;;;;;30.08;100.00;98014.34;5052603;28;20421;-57
2022/06/09 13:42:54;;;;;;;;;;;;;;;29.42;100.00;98002.97;5052812;28;19932;-58
2022/06/09 13:45:24;;;;;;;;;;;;;;;30.01;100.00;98010.03;5052818;28;20023;-57
2022/06/09 13:48:12;;;;;;;;;;;;;;;30.22;100.00;98014.00;5052440;28;19928;-57
2022/06/09 13:50:39;;;;;;;;;;;;;;;30.57;100.00;97975.63;5052247;28;19939;-57
2022/06/09 13:53:24;;;;;;;;;;;;;;;30.21;100.00;97983.44;5052422;28;19932;-57
2022/06/09 13:55:52;;;;;;;;;;;;;;;29.68;100.00;97955.34;5052205;28;19924;-57
2022/06/09 13:58:18;;;;;;;;;;;;;;;29.80;100.00;97980.69;5052306;28;19946;-57
2022/06/09 14:00:47;;;;;;;;;;;;;;;29.44;100.00;97947.53;5052066;28;20426;-57
2022/06/09 14:03:14;;;;;;;;;;;;;;;30.05;100.00;97944.75;5052291;28;20399;-57
2022/06/09 14:05:41;;;;;;;;;;;;;;;30.26;100.00;97957.19;5051993;28;19932;-58
2022/06/09 14:08:07;;;;;;;;;;;;;;;29.48;100.00;97981.13;5052280;28;19924;-58
2022/06/09 14:10:33;;;;;;;;;;;;;;;30.09;100.00;97981.97;5052499;28;19946;-57
2022/06/09 14:13:00;;;;;;;;;;;;;;;29.46;100.00;97959.06;5052185;28;20059;-58
2022/06/09 14:15:27;;;;;;;;;;;;;;;29.14;100.00;97957.97;5052112;28;19928;-58
2022/06/09 14:17:54;;;;;;;;;;;;;;;29.50;100.00;97990.59;5052241;28;19928;-57
2022/06/09 14:20:22;;;;;;;;;;;;;;;29.41;100.00;97976.03;5052121;28;20395;-57
2022/06/09 14:22:48;;;;;;;;;;;;;;;29.49;100.00;97971.34;5052175;28;19930;-57
2022/06/09 14:25:15;;;;;;;;;;;;;;;29.52;100.00;97973.13;5052124;28;19950;-57
2022/06/09 14:27:41;;;;;;;;;;;;;;;29.24;100.00;97993.84;5051984;28;19924;-57
2022/06/09 14:30:08;;;;;;;;;;;;;;;29.81;100.00;97982.97;5052015;28;19924;-57
2022/06/09 14:32:35;;;;;;;;;;;;;;;29.36;100.00;97988.91;5051333;28;20310;-57
2022/06/09 14:35:01;;;;;;;;;;;;;;;29.48;100.00;97978.28;5051915;28;19924;-57
2022/06/09 14:37:27;;;;;;;;;;;;;;;29.71;100.00;97984.59;5052422;28;20462;-57
2022/06/09 14:39:53;;;;;;;;;;;;;;;29.62;100.00;97990.56;5051862;28;19925;-58
2022/06/09 14:42:19;;;;;;;;;;;;;;;29.64;100.00;97949.22;5051742;28;19924;-57
2022/06/09 14:44:46;;;;;;;;;;;;;;;29.20;100.00;97931.25;5051900;28;19925;-57
2022/06/09 14:47:13;;;;;;;;;;;;;;;29.51;100.00;97951.84;5051756;28;19924;-57
2022/06/09 14:49:39;;;;;;;;;;;;;;;28.96;100.00;97948.03;5051914;28;20015;-57
2022/06/09 14:52:05;;;;;;;;;;;;;;;29.27;100.00;97946.88;5051616;28;19932;-57
2022/06/09 14:54:32;;;;;;;;;;;;;;;29.42;100.00;97940.84;5051779;28;19932;-57
2022/06/09 14:57:00;;;;;;;;;;;;;;;29.25;100.00;97949.44;5051543;28;20379;-57
2022/06/09 14:59:26;;;;;;;;;;;;;;;29.36;100.00;97934.47;5051423;28;19933;-57
2022/06/09 15:01:52;;;;;;;;;;;;;;;29.33;100.00;97970.19;5051606;28;19986;-57
2022/06/09 15:04:19;;;;;;;;;;;;;;;29.37;100.00;97924.75;5051424;28;19924;-57
2022/06/09 15:06:45;;;;;;;;;;;;;;;28.88;100.00;97899.84;5051328;28;19930;-57
2022/06/09 15:09:12;;;;;;;;;;;;;;;28.61;100.00;97916.38;5051593;28;19925;-57
2022/06/09 15:11:38;;;;;;;;;;;;;;;29.03;100.00;97955.97;5051208;28;19931;-56
2022/06/09 15:14:04;;;;;;;;;;;;;;;29.33;100.00;97941.97;5051251;28;19925;-57
2022/06/09 15:16:30;;;;;;;;;;;;;;;29.10;100.00;97952.59;5051449;28;19991;-57
2022/06/09 15:18:56;;;;;;;;;;;;;;;29.19;100.00;97945.88;5051182;28;19929;-56
2022/06/09 15:21:23;;;;;;;;;;;;;;;28.98;100.00;97912.34;5051187;28;20375;-58
2022/06/09 15:23:49;;;;;;;;;;;;;;;29.21;100.00;97951.78;5051117;28;19924;-58
2022/06/09 15:26:16;;;;;;;;;;;;;;;28.59;100.00;97935.88;5051191;28;19971;-56
2022/06/09 15:28:42;;;;;;;;;;;;;;;28.61;100.00;97921.25;5051080;28;19924;-57
2022/06/09 15:31:09;;;;;;;;;;;;;;;29.20;100.00;97900.22;5051352;28;19924;-58
2022/06/09 15:33:35;;;;;;;;;;;;;;;28.82;100.00;97897.06;5050960;28;20015;-56
2022/06/09 15:36:01;;;;;;;;;;;;;;;29.17;100.00;97867.41;5051189;28;19931;-56
2022/06/09 15:38:28;;;;;;;;;;;;;;;28.61;100.00;97831.78;5050922;28;19925;-57
2022/06/09 15:40:54;;;;;;;;;;;;;;;29.04;100.00;97825.66;5051038;28;19928;-56
2022/06/09 15:43:21;;;;;;;;;;;;;;;28.50;100.00;97848.00;5051060;28;20286;-58
2022/06/09 15:45:48;;;;;;;;;;;;;;;28.75;100.00;97827.09;5050829;28;19950;-58
2022/06/09 15:48:15;;;;;;;;;;;;;;;28.95;100.00;97919.03;5050787;28;19925;-57
2022/06/09 15:50:41;;;;;;;;;;;;;;;28.84;100.00;97924.75;5050825;28;19924;-57
2022/06/09 15:53:07;;;;;;;;;;;;;;;28.57;100.00;97913.06;5050756;28;19972;-57
2022/06/09 15:55:34;;;;;;;;;;;;;;;28.22;100.00;97921.31;5050731;28;19932;-58
2022/06/09 15:58:00;;;;;;;;;;;;;;;28.62;100.00;97905.84;5050635;28;19925;-57
2022/06/09 16:00:29;;;;;;;;;;;;;;;28.55;100.00;97898.72;5050579;28;19929;-57
2022/06/09 16:02:55;;;;;;;;;;;;;;;27.91;100.00;97833.81;5050824;28;19925;-57
2022/06/09 16:05:21;;;;;;;;;;;;;;;28.61;100.00;97890.25;5050810;28;20057;-56
2022/06/09 16:07:47;;;;;;;;;;;;;;;28.23;100.00;97861.66;5050443;28;19925;-58
2022/06/09 16:10:16;;;;;;;;;;;;;;;28.33;100.00;97817.81;5050625;28;19925;-55
2022/06/09 16:12:43;;;;;;;;;;;;;;;28.01;100.00;97854.03;5050506;28;19928;-57
2022/06/09 16:15:09;;;;;;;;;;;;;;;27.59;100.00;97889.63;5050385;28;19924;-55
2022/06/09 16:17:36;;;;;;;;;;;;;;;27.66;100.00;97919.34;5050460;28;19928;-56
2022/06/09 16:20:02;;;;;;;;;;;;;;;28.17;100.00;97933.41;5050441;28;19925;-55
2022/06/09 16:22:28;;;;;;;;;;;;;;;28.17;100.00;97958.75;5050449;28;19932;-56
2022/06/09 16:24:54;;;;;;;;;;;;;;;28.08;100.00;97943.63;5050536;28;19925;-56
2022/06/09 16:27:20;;;;;;;;;;;;;;;27.73;100.00;97929.31;5050359;28;19924;-55
2022/06/09 16:29:46;;;;;;;;;;;;;;;27.50;100.00;97918.03;5050438;28;19929;-57
2022/06/09 16:32:12;;;;;;;;;;;;;;;28.00;100.00;97953.91;5050176;28;19932;-56
2022/06/09 16:34:38;;;;;;;;;;;;;;;28.04;100.00;97951.59;5050338;28;19924;-58
2022/06/09 16:37:04;;;;;;;;;;;;;;;28.21;100.00;97962.06;5050089;28;19925;-56
2022/06/09 16:39:30;;;;;;;;;;;;;;;28.23;100.00;97951.81;5049968;28;19976;-56
2022/06/09 16:41:56;;;;;;;;;;;;;;;28.19;100.00;97933.63;5049846;28;19952;-56
2022/06/09 16:44:22;;;;;;;;;;;;;;;28.22;100.00;97929.78;5050048;28;19924;-55
2022/06/09 16:46:49;;;;;;;;;;;;;;;28.12;100.00;97941.34;5049985;28;20342;-56
2022/06/09 16:49:15;;;;;;;;;;;;;;;27.84;100.00;97940.59;5050147;28;19932;-54
2022/06/09 16:51:41;;;;;;;;;;;;;;;27.98;100.00;97916.25;5049864;28;20322;-54
2022/06/09 16:54:07;;;;;;;;;;;;;;;27.95;100.00;97895.50;5049924;28;19925;-56
2022/06/09 16:56:33;;;;;;;;;;;;;;;27.89;100.00;97920.88;5053591;28;19932;-54
2022/06/09 16:58:59;;;;;;;;;;;;;;;27.79;100.00;97868.94;5053417;28;20391;-55
2022/06/09 17:01:25;;;;;;;;;;;;;;;27.70;100.00;97855.06;5053665;28;19931;-54
2022/06/09 17:03:52;;;;;;;;;;;;;;;27.62;100.00;97835.13;5053462;28;19925;-54
2022/06/09 17:06:19;;;;;;;;;;;;;;;27.48;100.00;97799.56;5053365;28;19931;-54
2022/06/09 17:08:47;;;;;;;;;;;;;;;27.33;100.00;97782.97;5053454;28;19932;-54
2022/06/09 17:11:15;;;;;;;;;;;;;;;27.19;100.00;97741.75;5053141;28;19974;-54
2022/06/09 17:13:41;;;;;;;;;;;;;;;27.12;100.00;97768.34;5053203;28;20035;-54
2022/06/09 17:16:08;;;;;;;;;;;;;;;27.02;100.00;97722.06;5053325;28;20010;-53
2022/06/09 17:18:33;;;;;;;;;;;;;;;26.84;100.00;97759.91;5053160;28;19931;-54
2022/06/09 17:21:00;;;;;;;;;;;;;;;26.79;100.00;97669.91;5053080;28;19924;-54
2022/06/09 17:23:26;;;;;;;;;;;;;;;26.63;100.00;97644.13;5052938;28;20353;-54
2022/06/09 17:25:53;;;;;;;;;;;;;;;26.57;100.00;97617.31;5053051;28;20288;-53
2022/06/09 17:28:19;;;;;;;;;;;;;;;26.48;100.00;97638.75;5053209;28;20359;-54
2022/06/09 17:30:46;;;;;;;;;;;;;;;26.40;100.00;97651.75;5052887;28;19925;-54
2022/06/09 17:33:12;;;;;;;;;;;;;;;26.26;100.00;97656.34;5053118;28;20015;-54
2022/06/09 17:35:38;;;;;;;;;;;;;;;26.22;100.00;97596.81;5053074;28;20379;-54
2022/06/09 17:38:06;;;;;;;;;;;;;;;26.05;100.00;97565.13;5052935;28;19925;-54
2022/06/09 17:40:32;;;;;;;;;;;;;;;25.99;100.00;97598.06;5052802;28;19932;-54
2022/06/09 17:42:58;;;;;;;;;;;;;;;25.88;100.00;97584.78;5052903;28;20404;-54
2022/06/09 17:45:24;;;;;;;;;;;;;;;25.78;100.00;97570.16;5053028;28;20316;-53
2022/06/09 17:47:53;;;;;;;;;;;;;;;25.54;100.00;97565.00;5052959;28;19978;-53
2022/06/09 17:50:20;;;;;;;;;;;;;;;25.64;100.00;97570.41;5052895;28;20051;-56
2022/06/09 17:52:47;;;;;;;;;;;;;;;25.52;100.00;97550.72;5052809;28;19935;-56
2022/06/09 17:55:14;;;;;;;;;;;;;;;25.48;100.00;97532.59;5053117;28;19935;-54
2022/06/09 17:57:40;;;;;;;;;;;;;;;25.24;100.00;97505.75;5052753;28;19931;-54
2022/06/09 18:00:08;;;;;;;;;;;;;;;25.29;100.00;97507.03;5053192;28;20478;-56
2022/06/09 18:02:34;;;;;;;;;;;;;;;25.19;100.00;97497.31;5052807;28;19924;-54
2022/06/09 18:05:00;;;;;;;;;;;;;;;25.13;100.00;97491.69;5052510;28;19929;-54
2022/06/09 18:07:27;;;;;;;;;;;;;;;25.02;100.00;97491.63;5051445;28;19987;-55
2022/06/09 18:09:53;;;;;;;;;;;;;;;24.91;100.00;97478.31;5052258;28;19925;-53
2022/06/09 18:12:20;;;;;;;;;;;;;;;24.76;100.00;97486.94;5052196;28;19978;-54
2022/06/09 18:14:46;;;;;;;;;;;;;;;24.77;100.00;97487.69;5052404;28;20377;-55
2022/06/09 18:17:13;;;;;;;;;;;;;;;24.67;100.00;97489.94;5052160;28;19993;-54
2022/06/09 18:19:39;;;;;;;;;;;;;;;24.60;100.00;97482.00;5052203;28;19928;-54
2022/06/09 18:22:06;;;;;;;;;;;;;;;24.58;100.00;97492.94;5052423;28;19925;-54
2022/06/09 18:24:33;;;;;;;;;;;;;;;24.48;100.00;97489.56;5052126;28;19928;-53
2022/06/09 18:27:00;;;;;;;;;;;;;;;24.41;100.00;97482.38;5052325;28;19925;-54
2022/06/09 18:29:26;;;;;;;;;;;;;;;24.36;100.00;97488.69;5051969;28;20022;-54
2022/06/09 18:31:52;;;;;;;;;;;;;;;24.29;100.00;97483.56;5051834;28;19931;-53
2022/06/09 18:34:18;;;;;;;;;;;;;;;24.26;100.00;97490.16;5052014;28;19925;-53
2022/06/09 18:36:44;;;;;;;;;;;;;;;24.16;100.00;97495.19;5051984;28;19925;-53
2022/06/09 18:39:10;;;;;;;;;;;;;;;24.09;100.00;97497.66;5051947;28;20395;-53
2022/06/09 18:41:36;;;;;;;;;;;;;;;24.00;100.00;97495.81;5051829;28;19983;-53
2022/06/09 18:44:03;;;;;;;;;;;;;;;23.91;100.00;97504.38;5051886;28;20341;-52
2022/06/09 18:46:30;;;;;;;;;;;;;;;23.88;100.00;97514.53;5051903;28;19924;-53
2022/06/09 18:48:56;;;;;;;;;;;;;;;23.76;100.00;97512.91;5051990;28;19928;-54
2022/06/09 18:51:22;;;;;;;;;;;;;;;23.68;100.00;97522.97;5051674;28;20026;-53
2022/06/09 18:53:48;;;;;;;;;;;;;;;23.59;100.00;97526.69;5051508;28;19925;-53
2022/06/09 18:56:16;;;;;;;;;;;;;;;23.49;100.00;97536.47;5051483;28;19975;-54
2022/06/09 18:58:42;;;;;;;;;;;;;;;23.43;100.00;97544.81;5051830;28;19931;-54
2022/06/09 19:01:08;;;;;;;;;;;;;;;23.31;100.00;97564.75;5051514;28;20391;-54
2022/06/09 19:03:35;;;;;;;;;;;;;;;23.22;100.00;97574.81;5051501;28;20358;-54
2022/06/09 19:06:03;;;;;;;;;;;;;;;23.11;100.00;97582.28;5051534;28;19950;-56
2022/06/09 19:08:31;;;;;;;;;;;;;;;23.02;100.00;97583.19;5051547;28;19925;-51
2022/06/09 19:10:57;;;;;;;;;;;;;;;23.00;100.00;97580.88;5051244;28;20015;-54
2022/06/09 19:13:24;;;;;;;;;;;;;;;22.93;100.00;97606.47;5051600;28;20015;-53
2022/06/09 19:15:51;;;;;;;;;;;;;;;22.88;100.00;97628.69;5051486;28;19983;-56
2022/06/09 19:18:18;;;;;;;;;;;;;;;22.86;100.00;97645.16;5050933;28;19925;-55
2022/06/09 19:20:45;;;;;;;;;;;;;;;22.79;100.00;97657.50;5051570;28;19975;-54
2022/06/09 19:23:11;;;;;;;;;;;;;;;22.76;100.00;97645.28;5051180;28;20019;-54
2022/06/09 19:25:37;;;;;;;;;;;;;;;22.69;100.00;97684.00;5051398;28;19929;-53
2022/06/09 19:28:04;;;;;;;;;;;;;;;22.67;100.00;97698.47;5051034;28;19924;-53
2022/06/09 19:30:32;;;;;;;;;;;;;;;22.64;100.00;97695.88;5050933;28;19935;-53
2022/06/09 19:32:58;;;;;;;;;;;;;;;22.35;100.00;97756.03;5051116;28;19924;-54
2022/06/09 19:35:26;;;;;;;;;;;;;;;21.98;100.00;97865.09;5051011;28;19974;-53
2022/06/09 19:37:53;;;;;;;;;;;;;;;22.00;100.00;97890.53;5050943;28;19928;-53
2022/06/09 19:40:19;;;;;;;;;;;;;;;22.02;100.00;97884.47;5051031;28;20047;-53
2022/06/09 19:42:45;;;;;;;;;;;;;;;21.97;100.00;97890.72;5051223;28;20393;-53
2022/06/09 19:45:13;;;;;;;;;;;;;;;21.73;100.00;97963.19;5051022;28;19932;-53
2022/06/09 19:47:40;;;;;;;;;;;;;;;21.99;100.00;97963.53;5051151;28;19924;-54
2022/06/09 19:50:09;;;;;;;;;;;;;;;22.19;100.00;97919.16;5050777;28;19928;-55
2022/06/09 19:52:34;;;;;;;;;;;;;;;22.18;100.00;97923.16;5051070;28;19924;-53
2022/06/09 19:55:01;;;;;;;;;;;;;;;22.26;100.00;97918.03;5050627;28;19971;-53
2022/06/09 19:57:27;;;;;;;;;;;;;;;22.19;100.00;97955.44;5050770;28;20438;-54
2022/06/09 19:59:53;;;;;;;;;;;;;;;22.00;100.00;98010.53;5050690;28;19931;-51
2022/06/09 20:02:19;;;;;;;;;;;;;;;21.87;100.00;98043.41;5050697;28;19925;-53
2022/06/09 20:04:46;;;;;;;;;;;;;;;21.81;100.00;98113.00;5050666;28;19925;-53
2022/06/09 20:07:12;;;;;;;;;;;;;;;21.73;100.00;98142.47;5050495;28;19932;-53
2022/06/09 20:09:38;;;;;;;;;;;;;;;21.71;100.00;98094.75;5050855;28;20299;-53
2022/06/09 20:12:06;;;;;;;;;;;;;;;21.87;100.00;98053.81;5050625;28;20405;-54
2022/06/09 20:14:31;;;;;;;;;;;;;;;21.81;100.00;98045.28;5050690;28;19951;-54
2022/06/09 20:16:57;;;;;;;;;;;;;;;21.84;100.00;98109.28;5050696;28;19928;-53
2022/06/09 20:19:23;;;;;;;;;;;;;;;21.83;100.00;98118.16;5050863;28;19931;-53
2022/06/09 20:21:50;;;;;;;;;;;;;;;21.83;100.00;98163.56;5050416;28;20023;-53
2022/06/09 20:24:16;;;;;;;;;;;;;;;21.67;100.00;98221.66;5050458;28;19929;-53
2022/06/09 20:26:42;;;;;;;;;;;;;;;21.72;100.00;98243.34;5050270;28;19970;-53
2022/06/09 20:29:10;;;;;;;;;;;;;;;21.53;100.00;98278.81;5049659;28;19931;-54
2022/06/09 20:31:36;;;;;;;;;;;;;;;21.74;100.00;98275.13;5049989;28;19952;-54
2022/06/09 20:34:02;;;;;;;;;;;;;;;21.68;100.00;98292.94;5050156;28;20007;-52
2022/06/09 20:36:28;;;;;;;;;;;;;;;21.65;100.00;98346.84;5050139;28;19925;-54
2022/06/09 20:38:54;;;;;;;;;;;;;;;21.76;100.00;98336.81;5050237;28;19925;-54
2022/06/09 20:41:21;;;;;;;;;;;;;;;21.98;100.00;98308.81;5050444;28;19924;-52
2022/06/09 20:43:47;;;;;;;;;;;;;;;21.96;100.00;98277.00;5050043;28;19974;-54
2022/06/09 20:46:19;;;;;;;;;;;;;;;21.89;100.00;98322.72;5050314;28;19959;-54
2022/06/09 20:48:47;;;;;;;;;;;;;;;21.70;100.00;98388.88;5050008;28;19925;-53
2022/06/09 20:51:16;;;;;;;;;;;;;;;21.68;100.00;98394.13;5050021;28;20486;-53
2022/06/09 20:53:43;;;;;;;;;;;;;;;21.59;100.00;98422.78;5050228;28;20067;-54
2022/06/09 20:56:09;;;;;;;;;;;;;;;21.77;100.00;98408.13;5050086;28;20497;-53
2022/06/09 20:58:35;;;;;;;;;;;;;;;21.75;100.00;98390.28;5049882;28;20018;-54
2022/06/09 21:01:01;;;;;;;;;;;;;;;21.88;100.00;98395.75;5049827;28;19932;-54
2022/06/09 21:03:28;;;;;;;;;;;;;;;21.85;100.00;98389.06;5049897;28;19925;-54